createdAt,value
2023-04-08T00:02:37.395Z,77.62
2023-04-08T00:05:40.274Z,76.41
2023-04-08T00:08:43.406Z,76.59
2023-04-08T00:11:46.417Z,77.93
2023-04-08T00:14:49.304Z,78.48
2023-04-08T00:17:54.603Z,77.28
2023-04-08T00:20:58.183Z,77.12
2023-04-08T00:24:01.302Z,78.69
2023-04-08T00:27:04.383Z,77.71
2023-04-08T00:30:08.395Z,78.09
2023-04-08T00:33:12.770Z,77.66
2023-04-08T00:36:15.877Z,78.17
2023-04-08T00:39:18.977Z,78.07
2023-04-08T00:42:22.342Z,77.60
2023-04-08T00:45:25.302Z,78.20
2023-04-08T00:48:31.429Z,79.21
2023-04-08T00:51:36.397Z,80.50
2023-04-08T00:54:39.782Z,80.35
2023-04-08T00:57:43.393Z,77.73
2023-04-08T01:00:53.867Z,78.43
2023-04-08T01:04:03.673Z,77.39
2023-04-08T01:07:14.483Z,78.24
2023-04-08T01:10:19.649Z,76.68
2023-04-08T01:13:27.271Z,77.44
2023-04-08T01:16:30.356Z,77.47
2023-04-08T01:19:38.938Z,78.09
2023-04-08T01:22:53.782Z,79.05
2023-04-08T01:25:59.568Z,77.58
2023-04-08T01:29:04.097Z,79.49
2023-04-08T01:32:09.033Z,80.07
2023-04-08T01:35:12.579Z,79.63
2023-04-08T01:38:18.140Z,78.65
2023-04-08T01:41:22.884Z,79.50
2023-04-08T01:44:27.893Z,78.59
2023-04-08T01:47:31.913Z,79.11
2023-04-08T01:50:35.817Z,79.58
2023-04-08T01:53:38.776Z,78.88
2023-04-08T01:56:45.840Z,78.32
2023-04-08T01:59:52.158Z,79.64
2023-04-08T02:02:56.925Z,80.86
2023-04-08T02:05:59.933Z,79.58
2023-04-08T02:09:03.015Z,79.36
2023-04-08T02:12:07.573Z,80.66
2023-04-08T02:15:10.939Z,78.82
2023-04-08T02:18:17.593Z,79.78
2023-04-08T02:21:28.261Z,77.02
2023-04-08T02:24:31.688Z,78.02
2023-04-08T02:27:37.341Z,78.51
2023-04-08T02:30:44.473Z,78.15
2023-04-08T02:33:47.571Z,78.44
2023-04-08T02:36:51.279Z,80.11
2023-04-08T02:39:53.973Z,80.30
2023-04-08T02:42:58.767Z,81.18
2023-04-08T02:46:04.214Z,80.20
2023-04-08T02:49:07.256Z,79.39
2023-04-08T02:52:10.316Z,78.77
2023-04-08T02:55:13.194Z,80.43
2023-04-08T02:58:17.408Z,80.56
2023-04-08T03:01:20.454Z,79.23
2023-04-08T03:04:23.362Z,79.02
2023-04-08T03:07:26.308Z,79.57
2023-04-08T03:10:29.494Z,80.03
2023-04-08T03:13:34.286Z,79.66
2023-04-08T03:16:37.033Z,78.80
2023-04-08T03:19:39.973Z,80.04
2023-04-08T03:22:43.087Z,80.67
2023-04-08T03:25:45.885Z,80.74
2023-04-08T03:28:50.650Z,80.01
2023-04-08T03:31:54.145Z,80.67
2023-04-08T03:34:56.917Z,81.26
2023-04-08T03:38:00.019Z,79.86
2023-04-08T03:41:02.783Z,80.77
2023-04-08T03:44:07.773Z,81.14
2023-04-08T03:47:10.562Z,81.75
2023-04-08T03:50:13.568Z,81.58
2023-04-08T03:53:16.497Z,81.21
2023-04-08T03:56:19.323Z,80.98
2023-04-08T03:59:24.585Z,80.80
2023-04-08T04:02:27.809Z,82.26
2023-04-08T04:05:31.020Z,81.81
2023-04-08T04:08:34.498Z,81.50
2023-04-08T04:11:37.495Z,81.60
2023-04-08T04:14:41.542Z,81.57
2023-04-08T04:17:44.500Z,82.36
2023-04-08T04:20:47.376Z,82.01
2023-04-08T04:23:50.234Z,81.02
2023-04-08T04:26:53.952Z,81.24
2023-04-08T04:29:58.230Z,81.34
2023-04-08T04:33:00.935Z,81.68
2023-04-08T04:36:05.555Z,81.32
2023-04-08T04:39:08.518Z,81.13
2023-04-08T04:42:11.294Z,81.27
2023-04-08T04:45:16.026Z,80.57
2023-04-08T04:48:18.868Z,81.14
2023-04-08T04:51:21.973Z,80.66
2023-04-08T04:54:28.331Z,81.79
2023-04-08T04:57:31.637Z,81.93
2023-04-08T05:00:36.975Z,81.29
2023-04-08T05:03:40.038Z,82.03
2023-04-08T05:06:43.206Z,81.13
2023-04-08T05:09:47.090Z,80.95
2023-04-08T05:12:49.875Z,81.85
2023-04-08T05:15:54.094Z,80.21
2023-04-08T05:18:57.025Z,80.83
2023-04-08T05:22:00.407Z,81.88
2023-04-08T05:25:03.287Z,81.88
2023-04-08T05:28:06.763Z,81.35
2023-04-08T05:31:11.992Z,81.88
2023-04-08T05:34:22.532Z,81.81
2023-04-08T05:37:25.594Z,82.54
2023-04-08T05:40:29.624Z,82.24
2023-04-08T05:43:34.265Z,82.34
2023-04-08T05:46:38.735Z,81.39
2023-04-08T05:49:41.786Z,82.36
2023-04-08T05:52:46.602Z,82.98
2023-04-08T05:55:49.498Z,82.52
2023-04-08T05:58:52.454Z,81.66
2023-04-08T06:01:57.160Z,80.88
2023-04-08T06:05:00.039Z,81.06
2023-04-08T06:08:03.072Z,81.30
2023-04-08T06:11:07.000Z,81.81
2023-04-08T06:14:09.720Z,82.02
2023-04-08T06:17:14.030Z,80.73
2023-04-08T06:20:16.940Z,80.71
2023-04-08T06:23:20.064Z,80.88
2023-04-08T06:26:22.959Z,80.52
2023-04-08T06:29:25.898Z,82.08
2023-04-08T06:32:30.202Z,82.29
2023-04-08T06:35:33.080Z,82.38
2023-04-08T06:38:36.266Z,81.97
2023-04-08T06:41:39.143Z,81.74
2023-04-08T06:44:42.789Z,79.85
2023-04-08T06:47:48.243Z,81.17
2023-04-08T06:50:51.248Z,80.71
2023-04-08T06:53:54.155Z,80.43
2023-04-08T06:56:57.510Z,80.17
2023-04-08T07:00:00.541Z,80.87
2023-04-08T07:03:06.557Z,80.67
2023-04-08T07:06:09.918Z,79.47
2023-04-08T07:09:12.641Z,79.96
2023-04-08T07:12:15.679Z,81.02
2023-04-08T07:15:18.489Z,80.27
2023-04-08T07:18:23.635Z,79.48
2023-04-08T07:21:27.166Z,79.99
2023-04-08T07:24:29.919Z,79.56
2023-04-08T07:27:32.927Z,80.33
2023-04-08T07:30:35.769Z,78.85
2023-04-08T07:33:40.860Z,80.21
2023-04-08T07:36:44.122Z,79.62
2023-04-08T07:39:46.785Z,80.54
2023-04-08T07:42:49.604Z,79.73
2023-04-08T07:45:52.388Z,79.77
2023-04-08T07:48:57.499Z,80.02
2023-04-08T07:52:00.452Z,77.62
2023-04-08T07:55:03.273Z,78.13
2023-04-08T07:58:06.340Z,79.30
2023-04-08T08:01:18.796Z,79.36
2023-04-08T08:04:25.959Z,79.37
2023-04-08T08:07:29.027Z,79.59
2023-04-08T08:10:32.204Z,79.15
2023-04-08T08:13:35.132Z,78.20
2023-04-08T08:16:38.659Z,77.43
2023-04-08T08:19:42.903Z,79.00
2023-04-08T08:22:56.692Z,77.67
2023-04-08T08:26:01.343Z,77.60
2023-04-08T08:29:06.590Z,75.87
2023-04-08T08:32:09.318Z,74.65
2023-04-08T08:35:13.393Z,72.88
2023-04-08T08:38:17.704Z,73.85
2023-04-08T08:41:22.292Z,75.08
2023-04-08T08:44:25.863Z,74.75
2023-04-08T08:47:28.599Z,73.74
2023-04-08T08:50:32.976Z,74.38
2023-04-08T08:53:36.342Z,73.53
2023-04-08T08:56:39.669Z,75.30
2023-04-08T08:59:42.637Z,74.49
2023-04-08T09:02:59.665Z,74.60
2023-04-08T09:06:05.528Z,75.20
2023-04-08T09:09:10.676Z,75.76
2023-04-08T09:12:13.955Z,74.83
2023-04-08T09:15:16.790Z,74.85
2023-04-08T09:18:23.296Z,73.96
2023-04-08T09:21:27.819Z,72.56
2023-04-08T09:24:32.472Z,74.27
2023-04-08T09:27:36.277Z,73.76
2023-04-08T09:30:39.254Z,72.36
2023-04-08T09:33:42.102Z,73.15
2023-04-08T09:36:48.671Z,73.21
2023-04-08T09:39:51.588Z,73.82
2023-04-08T09:42:56.218Z,72.66
2023-04-08T09:46:04.345Z,72.55
2023-04-08T09:49:08.721Z,73.09
2023-04-08T09:52:17.524Z,72.93
2023-04-08T09:55:23.789Z,72.91
2023-04-08T09:58:30.525Z,73.03
2023-04-08T10:01:40.178Z,71.52
2023-04-08T10:04:49.088Z,70.83
2023-04-08T10:07:54.543Z,70.30
2023-04-08T10:10:57.848Z,69.31
2023-04-08T10:14:01.235Z,69.22
2023-04-08T10:17:27.591Z,65.93
2023-04-08T10:20:44.673Z,66.25
2023-04-08T10:24:00.938Z,64.46
2023-04-08T10:27:05.732Z,63.24
2023-04-08T10:30:43.547Z,65.32
2023-04-08T10:33:46.464Z,63.54
2023-04-08T10:36:49.963Z,64.96
2023-04-08T10:39:55.929Z,63.23
2023-04-08T10:42:59.894Z,61.68
2023-04-08T10:46:03.025Z,61.51
2023-04-08T10:49:07.025Z,62.82
2023-04-08T10:52:10.406Z,61.69
2023-04-08T10:55:14.665Z,61.77
2023-04-08T10:58:18.196Z,62.50
2023-04-08T11:01:21.447Z,61.69
2023-04-08T11:04:25.344Z,61.06
2023-04-08T11:07:28.279Z,60.68
2023-04-08T11:10:37.613Z,60.71
2023-04-08T11:13:51.255Z,60.73
2023-04-08T11:16:55.916Z,60.22
2023-04-08T11:20:02.335Z,58.25
2023-04-08T11:23:05.161Z,56.45
2023-04-08T11:26:10.541Z,55.87
2023-04-08T11:29:15.265Z,55.61
2023-04-08T11:32:19.001Z,56.76
2023-04-08T11:35:21.880Z,57.36
2023-04-08T11:38:25.908Z,56.44
2023-04-08T11:41:39.416Z,56.01
2023-04-08T11:44:42.771Z,55.07
2023-04-08T11:47:47.182Z,54.27
2023-04-08T11:51:03.771Z,52.70
2023-04-08T11:54:07.980Z,51.19
2023-04-08T11:57:12.930Z,51.65
2023-04-08T12:00:17.912Z,51.79
2023-04-08T12:03:22.052Z,51.75
2023-04-08T12:06:27.288Z,52.46
2023-04-08T12:09:30.188Z,53.33
2023-04-08T12:12:34.714Z,53.50
2023-04-08T12:15:38.350Z,54.57
2023-04-08T12:18:42.680Z,52.47
2023-04-08T12:21:45.826Z,52.12
2023-04-08T12:24:48.605Z,52.17
2023-04-08T12:27:52.756Z,52.07
2023-04-08T12:30:55.793Z,50.31
2023-04-08T12:33:58.940Z,50.29
2023-04-08T12:37:02.648Z,48.79
2023-04-08T12:40:06.078Z,48.05
2023-04-08T12:43:10.481Z,46.73
2023-04-08T12:46:13.425Z,48.52
2023-04-08T12:49:16.519Z,47.24
2023-04-08T12:52:19.881Z,48.02
2023-04-08T12:55:24.927Z,48.59
2023-04-08T12:58:29.696Z,49.78
2023-04-08T13:01:32.632Z,48.28
2023-04-08T13:04:37.293Z,47.33
2023-04-08T13:07:40.102Z,48.64
2023-04-08T13:10:43.722Z,46.92
2023-04-08T13:13:48.184Z,48.40
2023-04-08T13:16:51.095Z,47.85
2023-04-08T13:19:54.799Z,47.66
2023-04-08T13:22:59.956Z,48.70
2023-04-08T13:26:03.087Z,46.63
2023-04-08T13:29:07.256Z,45.45
2023-04-08T13:32:10.337Z,44.28
2023-04-08T13:35:15.088Z,44.72
2023-04-08T13:38:18.207Z,46.07
2023-04-08T13:41:22.156Z,46.63
2023-04-08T13:44:27.766Z,45.26
2023-04-08T13:47:32.697Z,44.85
2023-04-08T13:50:36.539Z,45.02
2023-04-08T13:53:39.641Z,44.64
2023-04-08T13:56:44.518Z,44.67
2023-04-08T13:59:48.903Z,46.61
2023-04-08T14:02:51.820Z,47.40
2023-04-08T14:05:55.409Z,47.19
2023-04-08T14:08:58.159Z,47.07
2023-04-08T14:12:00.887Z,46.68
2023-04-08T14:15:05.659Z,47.24
2023-04-08T14:18:10.127Z,47.18
2023-04-08T14:21:15.906Z,46.32
2023-04-08T14:24:18.977Z,44.82
2023-04-08T14:27:24.434Z,44.19
2023-04-08T14:30:29.185Z,44.03
2023-04-08T14:33:34.153Z,43.04
2023-04-08T14:36:37.591Z,44.32
2023-04-08T14:39:40.436Z,43.73
2023-04-08T14:42:44.545Z,44.50
2023-04-08T14:45:50.629Z,44.78
2023-04-08T14:48:54.025Z,46.37
2023-04-08T14:51:57.428Z,46.09
2023-04-08T14:55:00.518Z,46.63
2023-04-08T14:58:04.726Z,45.86
2023-04-08T15:01:08.922Z,46.09
2023-04-08T15:04:13.403Z,46.90
2023-04-08T15:07:18.086Z,44.79
2023-04-08T15:10:22.552Z,45.67
2023-04-08T15:13:25.343Z,45.74
2023-04-08T15:16:29.710Z,45.16
2023-04-08T15:19:32.680Z,44.49
2023-04-08T15:22:35.568Z,44.87
2023-04-08T15:25:38.402Z,44.02
2023-04-08T15:28:41.599Z,44.01
2023-04-08T15:31:45.882Z,44.47
2023-04-08T15:34:50.610Z,44.65
2023-04-08T15:37:53.646Z,41.99
2023-04-08T15:40:56.409Z,43.03
2023-04-08T15:43:59.698Z,42.97
2023-04-08T15:47:04.668Z,43.07
2023-04-08T15:50:09.808Z,43.33
2023-04-08T15:53:12.747Z,44.34
2023-04-08T15:56:18.163Z,45.58
2023-04-08T15:59:24.617Z,45.88
2023-04-08T16:02:31.396Z,45.90
2023-04-08T16:05:36.141Z,45.58
2023-04-08T16:08:39.288Z,51.04
2023-04-08T16:11:43.481Z,51.40
2023-04-08T16:14:47.905Z,52.94
2023-04-08T16:18:04.694Z,53.49
2023-04-08T16:21:08.004Z,54.14
2023-04-08T16:24:11.640Z,54.03
2023-04-08T16:27:14.956Z,54.50
2023-04-08T16:30:18.146Z,55.26
2023-04-08T16:33:24.008Z,55.35
2023-04-08T16:36:28.411Z,55.86
2023-04-08T16:39:32.715Z,56.36
2023-04-08T16:42:35.427Z,56.81
2023-04-08T16:45:39.048Z,57.39
2023-04-08T16:48:43.952Z,56.90
2023-04-08T16:51:59.005Z,57.44
2023-04-08T16:55:09.426Z,56.89
2023-04-08T16:58:12.241Z,57.83
2023-04-08T17:01:16.108Z,58.68
2023-04-08T17:04:20.822Z,57.74
2023-04-08T17:07:24.148Z,57.88
2023-04-08T17:10:26.935Z,59.44
2023-04-08T17:13:29.897Z,59.15
2023-04-08T17:16:33.917Z,58.80
2023-04-08T17:19:38.810Z,58.75
2023-04-08T17:22:42.089Z,58.88
2023-04-08T17:25:46.564Z,59.82
2023-04-08T17:28:49.843Z,60.23
2023-04-08T17:31:53.350Z,61.15
2023-04-08T17:34:57.814Z,61.50
2023-04-08T17:38:00.674Z,61.77
2023-04-08T17:41:03.465Z,61.95
2023-04-08T17:44:06.191Z,62.24
2023-04-08T17:47:09.789Z,61.74
2023-04-08T17:50:15.840Z,62.35
2023-04-08T17:53:18.852Z,62.01
2023-04-08T17:56:23.806Z,61.93
2023-04-08T17:59:27.030Z,62.21
2023-04-08T18:02:30.238Z,62.50
2023-04-08T18:05:35.488Z,62.69
2023-04-08T18:08:39.398Z,58.39
2023-04-08T18:11:42.701Z,57.86
2023-04-08T18:14:45.426Z,55.01
2023-04-08T18:17:48.857Z,56.80
2023-04-08T18:20:53.255Z,54.33
2023-04-08T18:23:56.244Z,55.45
2023-04-08T18:27:04.461Z,55.42
2023-04-08T18:30:08.849Z,56.34
2023-04-08T18:33:13.413Z,56.79
2023-04-08T18:36:19.016Z,56.40
2023-04-08T18:39:22.551Z,57.34
2023-04-08T18:42:26.202Z,57.25
2023-04-08T18:45:29.563Z,56.79
2023-04-08T18:48:33.448Z,57.38
2023-04-08T18:51:42.103Z,56.41
2023-04-08T18:54:48.915Z,56.37
2023-04-08T18:57:52.515Z,55.91
2023-04-08T19:00:55.514Z,57.07
2023-04-08T19:03:58.576Z,57.14
2023-04-08T19:07:03.044Z,56.92
2023-04-08T19:10:06.709Z,56.99
2023-04-08T19:13:09.510Z,57.22
2023-04-08T19:16:12.848Z,57.24
2023-04-08T19:19:16.231Z,56.89
2023-04-08T19:22:20.861Z,57.16
2023-04-08T19:25:23.582Z,57.77
2023-04-08T19:28:26.331Z,57.47
2023-04-08T19:31:30.337Z,57.45
2023-04-08T19:34:37.423Z,57.01
2023-04-08T19:37:41.729Z,56.97
2023-04-08T19:40:44.568Z,56.38
2023-04-08T19:43:47.759Z,56.83
2023-04-08T19:46:51.389Z,58.73
2023-04-08T19:49:54.089Z,58.23
2023-04-08T19:52:58.669Z,57.63
2023-04-08T19:56:02.318Z,56.96
2023-04-08T19:59:05.062Z,55.26
2023-04-08T20:02:08.507Z,55.35
2023-04-08T20:05:14.675Z,55.23
2023-04-08T20:08:19.006Z,52.08
2023-04-08T20:11:22.237Z,53.89
2023-04-08T20:14:25.499Z,53.39
2023-04-08T20:17:28.968Z,53.54
2023-04-08T20:20:31.966Z,53.38
2023-04-08T20:23:36.401Z,53.84
2023-04-08T20:26:40.503Z,54.17
2023-04-08T20:29:43.813Z,54.94
2023-04-08T20:32:49.053Z,52.71
2023-04-08T20:35:53.353Z,55.15
2023-04-08T20:38:57.991Z,54.90
2023-04-08T20:42:01.608Z,55.52
2023-04-08T20:45:05.903Z,55.34
2023-04-08T20:48:09.125Z,54.99
2023-04-08T20:51:12.184Z,55.05
2023-04-08T20:54:16.452Z,53.39
2023-04-08T20:57:19.434Z,54.61
2023-04-08T21:00:22.368Z,54.55
2023-04-08T21:03:25.296Z,53.65
2023-04-08T21:06:28.513Z,55.76
2023-04-08T21:09:32.685Z,54.93
2023-04-08T21:12:35.398Z,55.19
2023-04-08T21:15:38.726Z,56.10
2023-04-08T21:18:42.515Z,56.51
2023-04-08T21:21:47.031Z,57.92
2023-04-08T21:24:51.701Z,57.50
2023-04-08T21:27:54.910Z,58.60
2023-04-08T21:30:59.880Z,58.20
2023-04-08T21:34:02.742Z,58.09
2023-04-08T21:37:06.050Z,57.56
2023-04-08T21:40:12.056Z,57.71
2023-04-08T21:43:15.561Z,56.95
2023-04-08T21:46:18.831Z,56.05
2023-04-08T21:49:22.032Z,56.84
2023-04-08T21:52:26.729Z,56.66
2023-04-08T21:55:31.883Z,58.10
2023-04-08T21:58:34.972Z,56.52
2023-04-08T22:01:37.898Z,57.77
2023-04-08T22:04:41.213Z,58.19
2023-04-08T22:07:43.964Z,58.96
2023-04-08T22:10:48.210Z,58.55
2023-04-08T22:13:51.788Z,59.30
2023-04-08T22:16:54.865Z,59.09
2023-04-08T22:19:57.877Z,59.73
2023-04-08T22:23:00.668Z,58.72
2023-04-08T22:26:05.076Z,59.26
2023-04-08T22:29:07.870Z,59.83
2023-04-08T22:32:10.976Z,58.91
2023-04-08T22:35:14.157Z,58.03
2023-04-08T22:38:16.879Z,58.45
2023-04-08T22:41:22.687Z,58.94
2023-04-08T22:44:25.823Z,58.63
2023-04-08T22:47:28.684Z,59.02
2023-04-08T22:50:32.696Z,59.75
2023-04-08T22:53:35.856Z,61.16
2023-04-08T22:56:40.083Z,62.61
2023-04-08T22:59:42.873Z,62.31
2023-04-08T23:02:46.053Z,60.91
2023-04-08T23:05:48.980Z,60.37
2023-04-08T23:08:52.862Z,61.12
2023-04-08T23:12:05.250Z,60.22
2023-04-08T23:15:09.195Z,60.13
2023-04-08T23:18:12.892Z,60.42
2023-04-08T23:21:16.824Z,61.50
2023-04-08T23:24:19.520Z,60.93
2023-04-08T23:27:23.841Z,62.32
2023-04-08T23:30:26.823Z,61.97
2023-04-08T23:33:29.996Z,60.66
2023-04-08T23:36:33.813Z,60.28
2023-04-08T23:39:37.530Z,61.47
2023-04-08T23:42:42.150Z,62.60
2023-04-08T23:45:44.870Z,61.35
2023-04-08T23:48:48.238Z,61.93
2023-04-08T23:51:51.637Z,61.73
2023-04-08T23:54:54.385Z,61.86
2023-04-08T23:57:58.635Z,63.73
